Badan Meteorologi, Klimatologi, dan Geofisika

CUACA TERKINI BANDARA KUALANAMU

Kamis, 22 Februari 2018 04:02 UTC

Cuaca : Cerah - berawan

Angin : (dari) Utara, 18.5 km/jam

Jarak Pandang : >=10 km

Suhu : 30 °C

Waktu Pengamatan : 11:30 WIB

Selengkapnya>>>

DATA METEOROLOGI KUALANAMU

Data Metar Terbaru

Selengkapnya>>>

Data TAF Terbaru

TAF WIMM 212300Z 2200/2300 21004KT 3000 BR SCT017 BECMG 2202/2204 35010KT 9999 NSW BECMG 2212/2214 VRB03KT 3000 BR FEW016CB SCT017 =

Selengkapnya>>>

CITRA SATELIT

Enhanced
Citra Satelit
Cloud Type
Citra Satelit IR
Hotspot
Citra Satelit
Sebaran Asap
Citra Satelit